Time;durP1;ratioP1;P1;durP2;ratioP2;P2;SDS_P1;SDS_P2;PMS_P1;PMS_P2;Temp;Humidity;BMP_temperature;BMP_pressure;BME280_temperature;BME280_humidity;BME280_pressure;Samples;Min_cycle;Max_cycle;Signal;HPM_P1;HPM_P2
2021/01/11 00:02:36;;;;;;;30.33;18.70;;;-4.30;99.90;;;;;;4995062;28;20221;-73
2021/01/11 00:05:24;;;;;;;35.03;20.13;;;-4.30;99.90;;;;;;4998013;28;20261;-72
2021/01/11 00:08:09;;;;;;;45.80;26.95;;;-4.20;99.90;;;;;;4991604;28;20938;-72
2021/01/11 00:10:54;;;;;;;35.08;22.38;;;-4.10;99.90;;;;;;4993841;28;20202;-71
2021/01/11 00:13:41;;;;;;;40.60;22.27;;;-4.00;99.90;;;;;;4981844;28;20194;-72
2021/01/11 00:16:26;;;;;;;34.13;21.48;;;-3.80;99.90;;;;;;4994367;28;20261;-73
2021/01/11 00:19:11;;;;;;;31.88;20.70;;;-3.70;99.90;;;;;;4992290;28;20206;-72
2021/01/11 00:21:57;;;;;;;29.50;18.85;;;-3.60;99.90;;;;;;4996505;28;20233;-70
2021/01/11 00:24:42;;;;;;;22.80;16.02;;;-3.50;99.90;;;;;;4992778;28;21008;-73
2021/01/11 00:27:27;;;;;;;23.55;16.70;;;-3.50;99.90;;;;;;4996437;28;20206;-73
2021/01/11 00:30:13;;;;;;;26.05;15.60;;;-3.40;99.90;;;;;;4983863;28;20211;-72
2021/01/11 00:32:58;;;;;;;29.60;16.60;;;-3.60;99.90;;;;;;4997783;28;20199;-71
2021/01/11 00:35:43;;;;;;;34.58;19.58;;;-3.60;99.90;;;;;;4996374;28;20251;-71
2021/01/11 00:38:30;;;;;;;28.48;19.05;;;-3.80;99.90;;;;;;4996679;28;20198;-70
2021/01/11 00:41:19;;;;;;;28.10;18.02;;;-3.90;99.90;;;;;;4988568;28;20579;-73
2021/01/11 00:44:05;;;;;;;30.95;19.67;;;-4.00;99.90;;;;;;4984603;28;20760;-72
2021/01/11 00:46:50;;;;;;;32.15;20.67;;;-4.10;99.90;;;;;;4991022;28;20758;-72
2021/01/11 00:49:35;;;;;;;35.55;22.15;;;-4.00;99.90;;;;;;4990752;28;20257;-73
2021/01/11 00:52:20;;;;;;;37.42;20.52;;;-3.90;99.90;;;;;;4991870;28;20202;-73
2021/01/11 00:55:08;;;;;;;33.28;19.60;;;-3.80;99.90;;;;;;4991166;28;20311;-72
2021/01/11 00:57:53;;;;;;;34.20;20.02;;;-3.80;99.90;;;;;;4982441;28;20206;-72
2021/01/11 01:00:39;;;;;;;32.33;18.92;;;-3.80;99.90;;;;;;4999502;28;20206;-70
2021/01/11 01:03:24;;;;;;;33.20;21.60;;;-3.80;99.90;;;;;;4996658;28;20299;-70
2021/01/11 01:06:12;;;;;;;30.35;18.98;;;-3.80;99.90;;;;;;4994894;28;20311;-73
2021/01/11 01:08:57;;;;;;;34.97;19.80;;;-3.70;99.90;;;;;;4990354;28;20203;-71
2021/01/11 01:11:44;;;;;;;33.95;20.63;;;-3.70;99.90;;;;;;4992340;28;20261;-71
2021/01/11 01:14:29;;;;;;;36.28;22.83;;;-3.80;99.90;;;;;;4987211;28;20226;-72
2021/01/11 01:17:14;;;;;;;34.83;22.05;;;-3.90;99.90;;;;;;4994218;28;20900;-73
2021/01/11 01:19:59;;;;;;;37.00;20.95;;;-4.00;99.90;;;;;;4994064;28;20638;-73
2021/01/11 01:22:45;;;;;;;35.97;22.52;;;-3.90;99.90;;;;;;4991436;28;20242;-73
2021/01/11 01:25:30;;;;;;;31.65;19.75;;;-3.80;99.90;;;;;;4999954;28;20721;-71
2021/01/11 01:28:16;;;;;;;28.67;18.98;;;-3.80;99.90;;;;;;4996285;28;20214;-73
2021/01/11 01:31:01;;;;;;;31.70;18.33;;;-3.70;99.90;;;;;;4992806;28;20504;-72
2021/01/11 01:33:47;;;;;;;31.42;19.20;;;-3.70;99.90;;;;;;4987069;28;20272;-73
2021/01/11 01:36:32;;;;;;;33.08;20.65;;;-3.70;99.90;;;;;;4999571;28;20252;-72
2021/01/11 01:39:17;;;;;;;30.58;18.65;;;-3.70;99.90;;;;;;4991097;28;20250;-72
2021/01/11 01:42:02;;;;;;;27.17;17.75;;;-3.80;99.90;;;;;;4992196;28;20222;-70
2021/01/11 01:44:48;;;;;;;25.77;17.35;;;-3.80;99.90;;;;;;4994449;28;20226;-73
2021/01/11 01:47:34;;;;;;;24.85;15.55;;;-3.90;99.90;;;;;;4996244;28;20681;-73
2021/01/11 01:50:20;;;;;;;21.73;15.35;;;-4.00;99.90;;;;;;4997741;28;20210;-73
2021/01/11 01:53:05;;;;;;;25.98;16.60;;;-4.00;99.90;;;;;;4993513;28;20303;-71
2021/01/11 01:55:50;;;;;;;27.63;17.27;;;-4.00;99.90;;;;;;4987925;28;20362;-72
2021/01/11 01:58:37;;;;;;;31.38;18.90;;;-4.10;99.90;;;;;;4993554;28;20226;-72
2021/01/11 02:01:23;;;;;;;31.73;19.02;;;-4.20;99.90;;;;;;5000769;28;20299;-73
2021/01/11 02:04:08;;;;;;;34.88;20.42;;;-4.30;99.90;;;;;;4992076;28;20817;-72
2021/01/11 02:06:57;;;;;;;30.88;19.45;;;-4.30;99.90;;;;;;4993274;28;20274;-73
2021/01/11 02:09:48;;;;;;;28.05;17.23;;;-4.20;99.90;;;;;;4996158;28;20286;-73
2021/01/11 02:12:44;;;;;;;26.85;16.25;;;-4.20;99.90;;;;;;4989697;28;20270;-73
2021/01/11 02:15:36;;;;;;;28.65;17.13;;;-4.10;99.90;;;;;;4988463;28;20226;-72
2021/01/11 02:18:30;;;;;;;38.50;19.35;;;-4.10;99.90;;;;;;4983118;28;20250;-72
2021/01/11 02:21:51;;;;;;;32.03;18.20;;;-4.30;99.90;;;;;;4992362;28;20206;-71
2021/01/11 02:25:13;;;;;;;32.35;18.50;;;-4.20;99.90;;;;;;4997603;28;20653;-72
2021/01/11 02:27:59;;;;;;;29.30;18.63;;;-4.20;99.90;;;;;;4994137;28;20238;-73
2021/01/11 02:30:49;;;;;;;33.72;19.77;;;-4.30;99.90;;;;;;4990324;28;20536;-73
2021/01/11 02:33:35;;;;;;;36.03;19.08;;;-4.40;99.90;;;;;;4992807;28;20573;-72
2021/01/11 02:36:21;;;;;;;30.98;18.42;;;-4.40;99.90;;;;;;4991953;28;20203;-73
2021/01/11 02:39:06;;;;;;;33.45;18.08;;;-4.40;99.90;;;;;;4995501;28;20211;-70
2021/01/11 02:41:51;;;;;;;31.50;18.40;;;-4.30;99.90;;;;;;4998598;28;20234;-72
2021/01/11 02:44:36;;;;;;;25.73;16.50;;;-4.50;99.90;;;;;;4986139;28;20735;-72
2021/01/11 02:47:27;;;;;;;30.92;19.10;;;-4.40;99.90;;;;;;4996503;28;20274;-71
2021/01/11 02:50:19;;;;;;;31.67;19.30;;;-4.30;99.90;;;;;;4993316;28;20265;-73
2021/01/11 02:53:07;;;;;;;25.42;16.70;;;-4.30;99.90;;;;;;4995741;28;20195;-73
2021/01/11 02:55:56;;;;;;;29.52;18.20;;;-4.20;99.90;;;;;;4987611;28;20586;-72
2021/01/11 02:59:05;;;;;;;28.63;18.55;;;-4.20;99.90;;;;;;4983015;28;20619;-69
2021/01/11 03:01:54;;;;;;;26.52;17.23;;;-4.10;99.90;;;;;;4977611;28;20242;-72
2021/01/11 03:04:41;;;;;;;27.50;17.55;;;-4.10;99.90;;;;;;4992556;28;20305;-72
2021/01/11 03:07:26;;;;;;;27.77;16.30;;;-4.00;99.90;;;;;;4994283;28;20230;-72
2021/01/11 03:10:12;;;;;;;24.77;14.90;;;-3.90;99.90;;;;;;4990753;28;20904;-72
2021/01/11 03:12:57;;;;;;;24.73;15.88;;;-3.90;99.90;;;;;;4984263;28;20203;-71
2021/01/11 03:15:42;;;;;;;27.40;14.02;;;-4.00;99.90;;;;;;4993329;28;20222;-71
2021/01/11 03:18:27;;;;;;;23.85;15.32;;;-4.20;99.90;;;;;;4992492;28;20226;-73
2021/01/11 03:21:13;;;;;;;30.52;16.20;;;-4.40;99.90;;;;;;4987946;28;20214;-71
2021/01/11 03:23:58;;;;;;;26.67;16.15;;;-4.60;99.90;;;;;;4988483;28;20238;-71
2021/01/11 03:26:44;;;;;;;30.75;16.00;;;-4.60;99.90;;;;;;4994939;28;20207;-72
2021/01/11 03:29:29;;;;;;;24.90;16.50;;;-4.60;99.90;;;;;;4996816;28;20238;-72
2021/01/11 03:32:14;;;;;;;27.55;16.98;;;-4.50;99.90;;;;;;4991241;28;20616;-72
2021/01/11 03:34:59;;;;;;;26.20;15.52;;;-4.50;99.90;;;;;;4989742;28;20250;-72
2021/01/11 03:37:45;;;;;;;28.05;16.20;;;-4.40;99.90;;;;;;4991525;28;20207;-72
2021/01/11 03:40:30;;;;;;;28.48;16.60;;;-4.50;99.90;;;;;;4997108;28;20207;-72
2021/01/11 03:43:15;;;;;;;25.45;15.93;;;-4.50;99.90;;;;;;4985754;28;20231;-72
2021/01/11 03:46:00;;;;;;;28.00;16.45;;;-4.50;99.90;;;;;;4991937;28;20226;-72
2021/01/11 03:48:46;;;;;;;23.63;15.50;;;-4.40;99.90;;;;;;4981947;28;20203;-72
2021/01/11 03:51:31;;;;;;;23.98;15.88;;;-4.30;99.90;;;;;;4997495;28;20207;-71
2021/01/11 03:54:17;;;;;;;29.33;17.23;;;-4.40;99.90;;;;;;4990417;28;20230;-73
2021/01/11 03:57:02;;;;;;;25.77;15.52;;;-4.40;99.90;;;;;;4990994;28;20681;-73
2021/01/11 03:59:47;;;;;;;28.73;17.30;;;-4.40;99.90;;;;;;4984858;28;20202;-70
2021/01/11 04:02:33;;;;;;;28.02;16.10;;;-4.40;99.90;;;;;;4995771;28;20257;-73
2021/01/11 04:05:18;;;;;;;25.20;15.70;;;-4.30;99.90;;;;;;4992713;28;20337;-72
2021/01/11 04:08:04;;;;;;;23.85;15.25;;;-4.20;99.90;;;;;;4987117;28;20203;-73
2021/01/11 04:10:50;;;;;;;28.60;15.02;;;-4.30;99.90;;;;;;4985353;28;20250;-73
2021/01/11 04:13:35;;;;;;;24.02;14.20;;;-4.30;99.90;;;;;;4980018;28;20734;-72
2021/01/11 04:16:20;;;;;;;29.23;15.98;;;-4.30;99.90;;;;;;4992133;28;20207;-72
2021/01/11 04:19:05;;;;;;;20.27;14.32;;;-4.50;99.90;;;;;;4985523;28;20291;-72
2021/01/11 04:21:50;;;;;;;26.65;16.25;;;-4.70;99.90;;;;;;4992425;28;20214;-70
2021/01/11 04:24:35;;;;;;;27.98;16.23;;;-4.90;99.90;;;;;;4999823;28;20230;-73
2021/01/11 04:27:22;;;;;;;30.38;17.40;;;-4.90;99.90;;;;;;4995675;28;20293;-71
2021/01/11 04:30:09;;;;;;;28.25;16.88;;;-4.80;99.90;;;;;;4978796;28;20206;-73
2021/01/11 04:32:55;;;;;;;32.42;16.77;;;-4.80;99.90;;;;;;4984534;28;20261;-71
2021/01/11 04:35:41;;;;;;;29.52;18.65;;;-4.90;99.90;;;;;;4979595;28;20635;-73
2021/01/11 04:38:26;;;;;;;31.10;17.00;;;-4.90;99.90;;;;;;4991757;28;20316;-72
2021/01/11 04:41:13;;;;;;;27.10;17.15;;;-5.00;99.90;;;;;;4993736;28;20742;-73
2021/01/11 04:44:00;;;;;;;27.33;17.85;;;-4.90;99.90;;;;;;4984562;28;21922;-73
2021/01/11 04:46:45;;;;;;;29.10;17.83;;;-4.90;99.90;;;;;;4978373;28;20214;-71
2021/01/11 04:49:30;;;;;;;28.55;16.95;;;-4.70;99.90;;;;;;4992333;28;20222;-72
2021/01/11 04:52:17;;;;;;;31.70;17.75;;;-4.50;99.90;;;;;;4981077;28;20699;-72
2021/01/11 04:55:05;;;;;;;25.45;16.90;;;-4.40;99.90;;;;;;4985213;28;20669;-72
2021/01/11 04:57:53;;;;;;;28.55;17.13;;;-4.50;99.90;;;;;;4977676;28;20370;-72
2021/01/11 05:00:42;;;;;;;29.10;17.85;;;-4.50;99.90;;;;;;4982887;28;20203;-72
2021/01/11 05:03:28;;;;;;;28.77;18.08;;;-4.70;99.90;;;;;;4997251;28;20230;-73
2021/01/11 05:06:15;;;;;;;30.52;17.95;;;-4.90;99.90;;;;;;4989062;28;20245;-72
2021/01/11 05:09:07;;;;;;;30.90;18.70;;;-4.90;99.90;;;;;;4985490;28;20215;-72
2021/01/11 05:11:52;;;;;;;30.33;17.73;;;-4.90;99.90;;;;;;4984895;28;20275;-71
2021/01/11 05:14:37;;;;;;;26.45;17.25;;;-4.70;99.90;;;;;;4991111;28;20226;-72
2021/01/11 05:17:24;;;;;;;27.10;16.92;;;-4.50;99.90;;;;;;4986124;28;20347;-70
2021/01/11 05:20:11;;;;;;;28.40;17.42;;;-4.50;99.90;;;;;;4988761;28;20921;-72
2021/01/11 05:22:57;;;;;;;28.52;16.75;;;-4.40;99.90;;;;;;4994958;28;20277;-72
2021/01/11 05:25:44;;;;;;;29.80;17.77;;;-4.30;99.90;;;;;;4986144;28;20230;-71
2021/01/11 05:28:30;;;;;;;26.50;15.77;;;-4.20;99.90;;;;;;5001421;28;20704;-72
2021/01/11 05:31:16;;;;;;;25.05;14.00;;;-4.30;99.90;;;;;;4992932;28;20214;-72
2021/01/11 05:34:02;;;;;;;24.63;14.57;;;-4.30;99.90;;;;;;4990485;28;20274;-70
2021/01/11 05:36:47;;;;;;;33.22;13.90;;;-4.40;99.90;;;;;;4980455;28;20206;-72
2021/01/11 05:39:32;;;;;;;29.33;15.30;;;-4.50;99.90;;;;;;5000031;28;20263;-73
2021/01/11 05:42:21;;;;;;;28.27;17.20;;;-4.50;99.90;;;;;;4992405;28;20903;-73
2021/01/11 05:45:10;;;;;;;28.67;17.23;;;-4.60;99.90;;;;;;4991372;28;20746;-72
2021/01/11 05:47:58;;;;;;;27.63;17.27;;;-4.80;99.90;;;;;;4992230;28;20211;-72
2021/01/11 05:50:46;;;;;;;28.27;16.88;;;-4.90;99.90;;;;;;4990647;28;20262;-71
2021/01/11 05:53:31;;;;;;;28.05;16.48;;;-4.90;99.90;;;;;;4993292;28;20199;-71
2021/01/11 05:56:17;;;;;;;23.10;14.65;;;-4.90;99.90;;;;;;4992481;28;20566;-72
2021/01/11 05:59:04;;;;;;;25.05;14.60;;;-4.80;99.90;;;;;;4993372;28;20210;-71
2021/01/11 06:01:49;;;;;;;32.75;18.05;;;-4.80;99.90;;;;;;4985494;28;20226;-71
2021/01/11 06:04:35;;;;;;;30.33;17.52;;;-4.70;99.90;;;;;;4998030;28;20273;-73
2021/01/11 06:07:21;;;;;;;24.30;14.75;;;-4.60;99.90;;;;;;4996759;28;20206;-72
2021/01/11 06:10:08;;;;;;;25.77;15.70;;;-4.50;99.90;;;;;;4991630;28;20320;-72
2021/01/11 06:12:54;;;;;;;24.73;16.08;;;-4.40;99.90;;;;;;4986182;28;20722;-72
2021/01/11 06:15:40;;;;;;;25.88;15.25;;;-4.50;99.90;;;;;;4995320;28;20230;-72
2021/01/11 06:18:25;;;;;;;28.77;18.00;;;-4.50;99.90;;;;;;4996649;28;20219;-72
2021/01/11 06:21:11;;;;;;;28.85;16.15;;;-4.50;99.90;;;;;;4989047;28;20250;-70
2021/01/11 06:24:17;;;;;;;29.90;16.33;;;-4.60;99.90;;;;;;4986346;28;20718;-72
2021/01/11 06:27:16;;;;;;;33.53;18.08;;;-4.90;99.90;;;;;;4983357;28;20202;-71
2021/01/11 06:30:01;;;;;;;27.58;16.23;;;-5.20;99.90;;;;;;4986757;28;20214;-71
2021/01/11 06:32:46;;;;;;;26.02;15.98;;;-5.30;99.90;;;;;;4987825;28;20208;-72
2021/01/11 06:35:32;;;;;;;29.55;16.85;;;-5.30;99.90;;;;;;4997431;28;20628;-73
2021/01/11 06:38:24;;;;;;;24.60;15.90;;;-5.30;99.90;;;;;;4990491;28;20206;-72
2021/01/11 06:41:15;;;;;;;28.10;16.25;;;-5.10;99.90;;;;;;4981165;28;20265;-71
2021/01/11 06:44:04;;;;;;;25.20;15.50;;;-5.00;99.90;;;;;;4987310;28;20226;-73
2021/01/11 06:46:50;;;;;;;30.85;15.95;;;-4.90;99.90;;;;;;4993716;28;20202;-71
2021/01/11 06:49:36;;;;;;;22.45;15.20;;;-4.60;99.90;;;;;;4989971;28;20202;-72
2021/01/11 06:52:35;;;;;;;25.33;15.15;;;-4.60;99.90;;;;;;4990033;28;20203;-72
2021/01/11 06:55:21;;;;;;;28.23;17.83;;;-4.60;99.90;;;;;;4991973;28;20234;-70
2021/01/11 06:58:07;;;;;;;32.30;17.70;;;-4.70;99.90;;;;;;4981375;28;20691;-70
2021/01/11 07:01:02;;;;;;;26.08;16.60;;;-4.70;99.90;;;;;;4994626;28;20201;-72
2021/01/11 07:03:48;;;;;;;23.42;15.77;;;-4.90;99.90;;;;;;4985380;28;20222;-73
2021/01/11 07:06:35;;;;;;;24.50;14.02;;;-4.90;99.90;;;;;;4990057;28;20206;-73
2021/01/11 07:09:20;;;;;;;26.20;16.50;;;-5.30;99.90;;;;;;4990519;28;20230;-73
2021/01/11 07:12:06;;;;;;;25.48;16.27;;;-5.20;99.90;;;;;;4989038;28;20660;-73
2021/01/11 07:14:57;;;;;;;27.50;16.23;;;-5.30;99.90;;;;;;4987250;28;20229;-72
2021/01/11 07:17:43;;;;;;;30.50;17.23;;;-5.20;99.90;;;;;;4982546;28;20290;-72
2021/01/11 07:20:41;;;;;;;27.88;16.83;;;-5.10;99.90;;;;;;4989654;28;20206;-72
2021/01/11 07:23:26;;;;;;;24.80;16.88;;;-5.00;99.90;;;;;;4989298;28;20310;-73
2021/01/11 07:26:12;;;;;;;26.20;15.05;;;-5.10;99.90;;;;;;4989511;28;20274;-72
2021/01/11 07:29:06;;;;;;;22.25;15.32;;;-5.10;99.90;;;;;;4987596;28;20258;-71
2021/01/11 07:31:52;;;;;;;23.85;15.32;;;-4.90;99.90;;;;;;4992409;28;20198;-73
2021/01/11 07:34:38;;;;;;;27.13;16.02;;;-4.90;99.90;;;;;;4987460;28;20233;-72
2021/01/11 07:37:23;;;;;;;31.20;16.40;;;-4.80;99.90;;;;;;4984316;28;20215;-74
2021/01/11 07:40:10;;;;;;;28.70;15.50;;;-4.80;99.90;;;;;;4995404;28;20288;-73
2021/01/11 07:42:55;;;;;;;27.50;15.13;;;-4.70;99.90;;;;;;4990236;28;20303;-71
2021/01/11 07:45:40;;;;;;;29.92;15.85;;;-4.60;99.90;;;;;;4989376;28;20308;-73
2021/01/11 07:48:26;;;;;;;27.30;15.75;;;-4.60;99.90;;;;;;4989713;28;20694;-72
2021/01/11 07:51:12;;;;;;;34.65;19.45;;;-4.60;99.90;;;;;;4990959;28;20246;-73
2021/01/11 07:53:58;;;;;;;42.40;17.90;;;-4.50;99.90;;;;;;4999430;28;20203;-72
2021/01/11 07:56:44;;;;;;;45.90;20.48;;;-4.50;99.90;;;;;;4987809;28;20613;-73
2021/01/11 07:59:29;;;;;;;74.03;29.38;;;-4.60;99.90;;;;;;4983231;28;20281;-73
2021/01/11 08:02:15;;;;;;;33.33;16.73;;;-4.60;99.90;;;;;;4995692;28;20273;-71
2021/01/11 08:05:01;;;;;;;28.30;15.52;;;-4.70;99.90;;;;;;4998738;28;20272;-72
2021/01/11 08:07:50;;;;;;;40.80;21.75;;;-4.90;99.90;;;;;;4994999;28;20198;-71
2021/01/11 08:10:36;;;;;;;60.13;24.40;;;-5.00;99.90;;;;;;4980726;28;20206;-72
2021/01/11 08:13:22;;;;;;;76.10;29.13;;;-5.10;99.90;;;;;;4980828;28;20208;-72
2021/01/11 08:16:11;;;;;;;88.63;33.55;;;-4.90;99.90;;;;;;4991830;28;20257;-71
2021/01/11 08:19:03;;;;;;;58.00;27.42;;;-4.80;99.90;;;;;;4985346;28;20253;-71
2021/01/11 08:21:57;;;;;;;62.45;28.00;;;-4.60;99.90;;;;;;4984231;28;20797;-72
2021/01/11 08:24:42;;;;;;;63.80;27.00;;;-4.50;99.90;;;;;;4980373;28;20230;-73
2021/01/11 08:27:32;;;;;;;60.95;26.75;;;-4.40;99.90;;;;;;4982624;28;20330;-69
2021/01/11 08:30:24;;;;;;;47.40;24.40;;;-4.30;99.90;;;;;;4982393;28;20563;-73
2021/01/11 08:33:09;;;;;;;41.10;22.23;;;-4.30;99.90;;;;;;4987291;28;20910;-73
2021/01/11 08:36:16;;;;;;;42.20;23.50;;;-4.10;99.90;;;;;;4982020;28;20223;-71
2021/01/11 08:39:11;;;;;;;42.88;23.85;;;-4.00;99.90;;;;;;4979794;28;20206;-72
2021/01/11 08:41:56;;;;;;;39.72;22.05;;;-4.00;99.90;;;;;;4983351;28;20219;-73
2021/01/11 08:44:41;;;;;;;42.65;22.65;;;-4.00;99.90;;;;;;4990950;28;20234;-73
2021/01/11 08:47:27;;;;;;;34.40;21.80;;;-4.10;99.90;;;;;;4988049;28;23031;-72
2021/01/11 08:50:16;;;;;;;40.13;23.88;;;-4.00;99.90;;;;;;4986098;28;20322;-71
2021/01/11 08:53:21;;;;;;;41.53;23.52;;;-4.00;99.90;;;;;;4982879;28;20246;-72
2021/01/11 08:56:09;;;;;;;39.00;22.13;;;-4.20;99.90;;;;;;4988038;28;20569;-73
2021/01/11 08:58:54;;;;;;;44.45;24.77;;;-4.10;99.90;;;;;;4990365;28;20218;-72
2021/01/11 09:01:41;;;;;;;42.75;23.33;;;-4.10;99.90;;;;;;4985418;28;20210;-73
2021/01/11 09:04:35;;;;;;;42.42;22.30;;;-4.10;99.90;;;;;;4985734;28;20285;-71
2021/01/11 09:07:28;;;;;;;37.00;22.95;;;-4.00;99.90;;;;;;4988418;28;20738;-73
2021/01/11 09:10:25;;;;;;;40.70;23.50;;;-4.00;99.90;;;;;;4990052;28;20234;-73
2021/01/11 09:13:18;;;;;;;38.35;22.88;;;-4.00;99.90;;;;;;4985542;28;20420;-74
2021/01/11 09:16:13;;;;;;;42.33;24.30;;;-3.90;99.90;;;;;;4987872;28;20947;-72
2021/01/11 09:19:08;;;;;;;45.65;23.45;;;-3.70;99.90;;;;;;4983366;28;20210;-70
2021/01/11 09:22:14;;;;;;;41.15;23.88;;;-3.60;99.90;;;;;;4988485;28;20243;-73
2021/01/11 09:25:00;;;;;;;48.03;27.33;;;-3.50;99.90;;;;;;4989636;28;20266;-73
2021/01/11 09:27:47;;;;;;;48.47;27.42;;;-3.50;99.90;;;;;;4990401;28;20203;-72
2021/01/11 09:30:35;;;;;;;36.80;22.45;;;-3.40;99.90;;;;;;4984411;28;20223;-72
2021/01/11 09:33:20;;;;;;;42.75;23.42;;;-3.30;99.90;;;;;;4986628;28;20211;-73
2021/01/11 09:36:06;;;;;;;37.30;22.23;;;-3.20;99.90;;;;;;4985717;28;20219;-72
2021/01/11 09:38:51;;;;;;;37.70;22.40;;;-3.10;99.90;;;;;;4986027;28;20222;-74
2021/01/11 09:41:41;;;;;;;46.95;24.00;;;-3.00;99.90;;;;;;4982385;28;20259;-73
2021/01/11 09:44:26;;;;;;;34.85;23.45;;;-3.10;99.90;;;;;;4983746;28;20235;-73
2021/01/11 09:47:13;;;;;;;35.20;22.70;;;-3.00;99.90;;;;;;4982698;28;20207;-71
2021/01/11 09:49:57;;;;;;;28.98;19.77;;;-2.90;99.90;;;;;;4989104;28;20207;-73
2021/01/11 09:52:43;;;;;;;35.85;19.15;;;-2.80;99.90;;;;;;4987795;28;20212;-72
2021/01/11 09:55:28;;;;;;;31.67;19.48;;;-2.70;99.90;;;;;;4982564;28;20258;-72
2021/01/11 09:58:15;;;;;;;32.22;19.15;;;-2.70;99.90;;;;;;4981788;28;20206;-73
2021/01/11 10:01:00;;;;;;;38.58;23.05;;;-2.70;99.90;;;;;;4984717;28;20210;-73
2021/01/11 10:03:48;;;;;;;36.55;21.92;;;-2.50;99.90;;;;;;4989001;28;20278;-73
2021/01/11 10:06:43;;;;;;;35.78;20.70;;;-2.40;99.90;;;;;;4986918;28;20203;-73
2021/01/11 10:09:30;;;;;;;34.78;22.30;;;-2.30;99.90;;;;;;4984000;28;20210;-73
2021/01/11 10:12:15;;;;;;;36.85;19.90;;;-2.20;99.90;;;;;;4984847;28;20293;-71
2021/01/11 10:15:00;;;;;;;35.40;19.73;;;-2.10;99.90;;;;;;4979712;28;20255;-73
2021/01/11 10:17:45;;;;;;;34.83;21.17;;;-2.00;99.90;;;;;;4987511;28;20243;-73
2021/01/11 10:20:31;;;;;;;40.05;19.17;;;-1.90;99.90;;;;;;4989585;28;20218;-73
2021/01/11 10:23:16;;;;;;;26.48;17.60;;;-1.90;99.90;;;;;;4985355;28;20278;-73
2021/01/11 10:26:02;;;;;;;32.92;20.27;;;-1.80;99.90;;;;;;4986026;28;20782;-73
2021/01/11 10:28:48;;;;;;;38.42;21.08;;;-1.60;99.90;;;;;;4984101;28;20222;-73
2021/01/11 10:31:33;;;;;;;32.45;20.45;;;-1.40;99.90;;;;;;4986032;28;20202;-72
2021/01/11 10:34:20;;;;;;;37.03;21.50;;;-1.20;99.90;;;;;;4982288;28;20302;-73
2021/01/11 10:37:06;;;;;;;35.55;21.98;;;-0.90;99.90;;;;;;4981791;28;20231;-73
2021/01/11 10:39:51;;;;;;;34.80;21.35;;;-0.70;99.90;;;;;;4985603;28;20294;-71
2021/01/11 10:42:36;;;;;;;35.47;19.10;;;-0.30;99.90;;;;;;4977567;28;20741;-72
2021/01/11 10:45:21;;;;;;;36.70;20.67;;;0.00;99.90;;;;;;4995093;28;20321;-73
2021/01/11 10:48:07;;;;;;;36.67;20.00;;;0.40;99.90;;;;;;4980101;28;20280;-70
2021/01/11 10:50:52;;;;;;;33.00;21.25;;;0.80;99.90;;;;;;4983138;28;20214;-72
2021/01/11 10:53:39;;;;;;;39.17;22.90;;;1.10;99.90;;;;;;4976399;28;20254;-73
2021/01/11 10:56:23;;;;;;;36.17;21.08;;;1.40;99.90;;;;;;4987993;28;20211;-73
2021/01/11 10:59:09;;;;;;;37.08;20.55;;;1.70;99.90;;;;;;4983841;28;20343;-72
2021/01/11 11:01:54;;;;;;;43.58;20.92;;;2.00;99.90;;;;;;4983392;28;20215;-70
2021/01/11 11:04:40;;;;;;;38.25;21.52;;;2.40;99.90;;;;;;4984543;28;20243;-73
2021/01/11 11:07:25;;;;;;;39.72;23.00;;;2.60;99.90;;;;;;4982914;28;20242;-72
2021/01/11 11:10:13;;;;;;;38.78;21.45;;;2.70;99.90;;;;;;4985873;28;20990;-73
2021/01/11 11:12:58;;;;;;;32.72;20.15;;;2.90;99.90;;;;;;4983123;28;20275;-73
2021/01/11 11:15:44;;;;;;;32.28;20.75;;;2.70;99.90;;;;;;4978844;28;20892;-72
2021/01/11 11:18:29;;;;;;;35.63;21.92;;;2.60;99.90;;;;;;4984061;28;20203;-71
2021/01/11 11:21:15;;;;;;;46.67;23.50;;;2.60;99.90;;;;;;4984301;28;20638;-73
2021/01/11 11:24:00;;;;;;;34.50;20.92;;;2.50;99.90;;;;;;4987623;28;20301;-72
2021/01/11 11:26:46;;;;;;;36.80;22.58;;;2.40;99.90;;;;;;4980581;28;20210;-69
2021/01/11 11:29:31;;;;;;;36.53;21.38;;;2.40;99.90;;;;;;4982710;28;20274;-72
2021/01/11 11:32:17;;;;;;;33.75;21.35;;;2.30;99.90;;;;;;4976791;28;20686;-73
2021/01/11 11:35:05;;;;;;;34.03;20.98;;;2.10;99.90;;;;;;4983943;28;20270;-72
2021/01/11 11:37:51;;;;;;;32.55;20.33;;;2.00;99.90;;;;;;4980825;28;20730;-71
2021/01/11 11:40:36;;;;;;;34.97;23.27;;;1.90;99.90;;;;;;4981472;28;20198;-70
2021/01/11 11:43:23;;;;;;;36.50;22.55;;;2.00;99.90;;;;;;4988265;28;20226;-72
2021/01/11 11:46:08;;;;;;;36.55;21.90;;;2.00;99.90;;;;;;4986538;28;20203;-73
2021/01/11 11:48:53;;;;;;;31.25;21.00;;;1.90;99.90;;;;;;4980653;28;20217;-73
2021/01/11 11:51:42;;;;;;;42.75;21.88;;;2.00;99.90;;;;;;4984631;28;20786;-72
2021/01/11 11:54:28;;;;;;;31.88;20.80;;;1.90;99.90;;;;;;4977527;28;20310;-72
2021/01/11 11:57:13;;;;;;;34.22;21.25;;;1.80;99.90;;;;;;4984420;28;20305;-73
2021/01/11 11:59:59;;;;;;;34.38;19.75;;;1.80;99.90;;;;;;4986374;28;20209;-74
2021/01/11 12:02:45;;;;;;;36.00;22.85;;;1.80;99.90;;;;;;4979895;28;20761;-74
2021/01/11 12:05:30;;;;;;;32.03;20.42;;;1.80;99.90;;;;;;4993418;28;20273;-73
2021/01/11 12:08:15;;;;;;;33.70;20.80;;;1.80;99.90;;;;;;4987069;28;20235;-71
2021/01/11 12:11:00;;;;;;;29.25;18.30;;;1.80;99.90;;;;;;4986351;28;20252;-73
2021/01/11 12:13:45;;;;;;;36.13;17.85;;;1.80;99.90;;;;;;4986386;28;20249;-73
2021/01/11 12:16:31;;;;;;;25.63;16.58;;;1.90;99.90;;;;;;4992715;28;20209;-73
2021/01/11 12:19:17;;;;;;;25.13;15.30;;;2.10;99.90;;;;;;4993484;28;20215;-73
2021/01/11 12:22:05;;;;;;;82.03;36.50;;;2.20;99.90;;;;;;4993089;28;20198;-73
2021/01/11 12:24:50;;;;;;;27.00;16.90;;;2.40;99.90;;;;;;4977899;28;20339;-73
2021/01/11 12:27:35;;;;;;;20.90;13.23;;;2.50;99.90;;;;;;4982617;28;20202;-73
2021/01/11 12:30:21;;;;;;;19.17;12.25;;;2.70;99.90;;;;;;4984036;28;20207;-73
2021/01/11 12:33:08;;;;;;;12.52;9.25;;;3.10;99.90;;;;;;4984238;28;20218;-71
2021/01/11 12:35:53;;;;;;;15.48;9.05;;;3.40;99.90;;;;;;4985621;28;20297;-71
2021/01/11 12:38:38;;;;;;;15.60;10.13;;;3.70;99.90;;;;;;4981229;28;20295;-70
2021/01/11 12:41:25;;;;;;;12.48;8.05;;;4.20;99.90;;;;;;4990486;28;20207;-73
2021/01/11 12:44:11;;;;;;;15.00;8.60;;;4.70;98.20;;;;;;4994587;28;20302;-72
2021/01/11 12:46:56;;;;;;;16.42;9.90;;;5.10;95.50;;;;;;4984184;28;20292;-71
2021/01/11 12:49:43;;;;;;;14.68;10.23;;;5.40;91.80;;;;;;4982157;28;20211;-71
2021/01/11 12:52:28;;;;;;;11.23;7.93;;;5.40;84.50;;;;;;4984736;28;20257;-72
2021/01/11 12:55:14;;;;;;;11.98;8.30;;;5.60;73.30;;;;;;4988288;28;20271;-73
2021/01/11 12:57:59;;;;;;;12.32;9.10;;;5.70;68.80;;;;;;4991027;28;20559;-73
2021/01/11 13:00:44;;;;;;;12.07;8.05;;;6.00;69.00;;;;;;4981346;28;20207;-73
2021/01/11 13:03:29;;;;;;;11.27;8.88;;;6.30;62.00;;;;;;4994497;28;20617;-71
2021/01/11 13:06:20;;;;;;;14.43;7.97;;;6.50;58.90;;;;;;4988105;28;20703;-72
2021/01/11 13:09:07;;;;;;;12.23;8.50;;;7.00;58.50;;;;;;4996518;28;20741;-74
2021/01/11 13:11:53;;;;;;;12.07;7.68;;;7.30;54.30;;;;;;4991397;28;20198;-73
2021/01/11 13:14:38;;;;;;;10.98;8.45;;;7.70;49.40;;;;;;4979760;28;20233;-72
2021/01/11 13:17:23;;;;;;;10.82;7.55;;;8.20;47.40;;;;;;4991667;28;20235;-73
2021/01/11 13:20:09;;;;;;;11.98;8.23;;;7.90;48.60;;;;;;4980476;28;20713;-74
2021/01/11 13:22:55;;;;;;;11.77;7.80;;;7.80;46.80;;;;;;4982740;28;20254;-74
2021/01/11 13:25:40;;;;;;;11.68;8.25;;;7.90;47.90;;;;;;4983375;28;20230;-72
2021/01/11 13:28:25;;;;;;;11.95;8.60;;;8.60;46.30;;;;;;4985482;28;20206;-74
2021/01/11 13:31:10;;;;;;;10.80;7.85;;;8.40;44.30;;;;;;4984903;28;20230;-74
2021/01/11 13:33:56;;;;;;;10.88;7.38;;;7.70;46.60;;;;;;4981393;28;20214;-73
2021/01/11 13:36:41;;;;;;;13.98;8.73;;;7.20;49.10;;;;;;4974851;28;20262;-73
2021/01/11 13:39:27;;;;;;;12.82;8.27;;;6.80;50.30;;;;;;4987275;28;20219;-73
2021/01/11 13:42:12;;;;;;;12.93;8.77;;;6.70;53.30;;;;;;4987320;28;20226;-71
2021/01/11 13:44:58;;;;;;;11.48;8.45;;;6.50;51.80;;;;;;4983546;28;20282;-73
2021/01/11 13:47:48;;;;;;;10.65;7.75;;;5.80;53.80;;;;;;4982811;28;20199;-72
2021/01/11 13:50:33;;;;;;;13.57;9.05;;;4.70;57.00;;;;;;4987126;28;20236;-71
2021/01/11 13:53:18;;;;;;;13.93;10.32;;;4.20;71.20;;;;;;4984558;28;20339;-72
2021/01/11 13:56:04;;;;;;;16.33;10.63;;;3.70;74.10;;;;;;4986757;28;20258;-71
2021/01/11 13:58:53;;;;;;;12.57;8.75;;;3.40;82.10;;;;;;4981698;28;20203;-72
2021/01/11 14:01:40;;;;;;;14.05;8.95;;;3.10;86.20;;;;;;4986534;28;20223;-73
2021/01/11 14:04:25;;;;;;;13.98;9.88;;;2.90;90.80;;;;;;4993947;28;20253;-72
2021/01/11 14:07:10;;;;;;;15.68;11.00;;;2.90;93.80;;;;;;4986766;28;20787;-72
2021/01/11 14:09:55;;;;;;;17.00;10.75;;;2.90;94.80;;;;;;4983200;28;20202;-71
2021/01/11 14:12:42;;;;;;;14.48;8.73;;;2.80;95.90;;;;;;4991160;28;20295;-73